Baus, Brazil
Current Conditions -  °F | °C
As of 1:00 AM on Thursday 23 Oct 2014 (Local Time) from SBCY Reporting Station
Clear Clear  
Wind Chill: 81°   Ceiling: Unl
Heat Index: 83°   Visibility: 6mi
Dew Point: 68°   Wind: 9mph
Humidity: 65%   Direction: 20°NNE
Pressure: 29.91"   Gusts: NA
Location:  15.24°S, 57.98°W
Report Text: SBCY 230400Z 02008KT CAVOK 27/20 Q1013
Loading
Personal Weather Stations






























Interactive Weather Map
Tropical Storm Tracking
New forecast layout! Learn more

10-Day Weather Forecast

Advertisements
Track Severe Weather on mobile